sensor_id;sensor_type;location;lat;lon;timestamp;pressure;altitude;pressure_sealevel;temperature;humidity
3748;BME280;1889;50.058;8.688;2022-10-26T00:01:33;100269.30;;;15.14;73.07
3748;BME280;1889;50.058;8.688;2022-10-26T00:04:03;100263.55;;;15.15;73.07
3748;BME280;1889;50.058;8.688;2022-10-26T00:06:32;100262.14;;;15.16;73.07
3748;BME280;1889;50.058;8.688;2022-10-26T00:09:02;100259.85;;;15.19;73.09
3748;BME280;1889;50.058;8.688;2022-10-26T00:11:31;100258.48;;;15.20;73.02
3748;BME280;1889;50.058;8.688;2022-10-26T00:14:00;100260.63;;;15.22;72.96
3748;BME280;1889;50.058;8.688;2022-10-26T00:16:29;100257.97;;;15.22;72.96
3748;BME280;1889;50.058;8.688;2022-10-26T00:18:59;100261.13;;;15.20;73.02
3748;BME280;1889;50.058;8.688;2022-10-26T00:21:28;100262.00;;;15.21;73.06
3748;BME280;1889;50.058;8.688;2022-10-26T00:23:58;100261.04;;;15.23;73.06
3748;BME280;1889;50.058;8.688;2022-10-26T00:26:28;100260.63;;;15.22;73.07
3748;BME280;1889;50.058;8.688;2022-10-26T00:28:57;100254.55;;;15.19;73.16
3748;BME280;1889;50.058;8.688;2022-10-26T00:31:27;100258.89;;;15.21;73.22
3748;BME280;1889;50.058;8.688;2022-10-26T00:33:56;100263.52;;;15.28;73.22
3748;BME280;1889;50.058;8.688;2022-10-26T00:36:26;100260.17;;;15.23;73.25
3748;BME280;1889;50.058;8.688;2022-10-26T00:38:56;100257.39;;;15.26;73.23
3748;BME280;1889;50.058;8.688;2022-10-26T00:41:28;100259.95;;;15.29;73.25
3748;BME280;1889;50.058;8.688;2022-10-26T00:43:57;100260.77;;;15.31;73.21
3748;BME280;1889;50.058;8.688;2022-10-26T00:46:29;100259.85;;;15.32;73.15
3748;BME280;1889;50.058;8.688;2022-10-26T00:49:01;100261.32;;;15.27;73.27
3748;BME280;1889;50.058;8.688;2022-10-26T00:51:35;100262.14;;;15.30;73.22
3748;BME280;1889;50.058;8.688;2022-10-26T00:54:07;100261.18;;;15.32;73.20
3748;BME280;1889;50.058;8.688;2022-10-26T00:56:36;100256.84;;;15.30;73.21
3748;BME280;1889;50.058;8.688;2022-10-26T00:59:08;100263.01;;;15.30;73.26
3748;BME280;1889;50.058;8.688;2022-10-26T01:01:41;100255.39;;;15.33;73.22
3748;BME280;1889;50.058;8.688;2022-10-26T01:04:12;100258.45;;;15.34;73.21
3748;BME280;1889;50.058;8.688;2022-10-26T01:06:42;100261.46;;;15.36;73.15
3748;BME280;1889;50.058;8.688;2022-10-26T01:09:12;100262.33;;;15.37;73.13
3748;BME280;1889;50.058;8.688;2022-10-26T01:11:42;100255.24;;;15.37;73.08
3748;BME280;1889;50.058;8.688;2022-10-26T01:14:13;100251.22;;;15.39;73.09
3748;BME280;1889;50.058;8.688;2022-10-26T01:17:26;100251.17;;;15.40;73.08
3748;BME280;1889;50.058;8.688;2022-10-26T01:31:53;100240.20;;;15.38;72.71
3748;BME280;1889;50.058;8.688;2022-10-26T01:34:35;100237.19;;;15.35;72.85
3748;BME280;1889;50.058;8.688;2022-10-26T01:37:07;100245.55;;;15.36;72.89
3748;BME280;1889;50.058;8.688;2022-10-26T01:39:40;100245.31;;;15.31;72.93
3748;BME280;1889;50.058;8.688;2022-10-26T01:42:10;100241.84;;;15.28;73.11
3748;BME280;1889;50.058;8.688;2022-10-26T01:44:48;100228.22;;;15.26;73.21
3748;BME280;1889;50.058;8.688;2022-10-26T01:47:15;100224.74;;;15.37;73.01
3748;BME280;1889;50.058;8.688;2022-10-26T01:49:48;100219.95;;;15.35;72.94
3748;BME280;1889;50.058;8.688;2022-10-26T01:52:18;100229.73;;;15.33;73.11
3748;BME280;1889;50.058;8.688;2022-10-26T01:54:47;100232.10;;;15.29;73.27
3748;BME280;1889;50.058;8.688;2022-10-26T01:57:20;100248.30;;;15.33;73.25
3748;BME280;1889;50.058;8.688;2022-10-26T02:00:03;100232.10;;;15.29;73.65
3748;BME280;1889;50.058;8.688;2022-10-26T02:05:35;100232.64;;;15.01;74.12
3748;BME280;1889;50.058;8.688;2022-10-26T02:19:41;100228.02;;;15.07;74.34
3748;BME280;1889;50.058;8.688;2022-10-26T02:24:47;100224.95;;;15.06;74.28
3748;BME280;1889;50.058;8.688;2022-10-26T02:27:26;100213.77;;;15.10;74.17
3748;BME280;1889;50.058;8.688;2022-10-26T02:29:57;100214.32;;;15.19;73.94
3748;BME280;1889;50.058;8.688;2022-10-26T02:32:30;100206.41;;;15.18;73.80
3748;BME280;1889;50.058;8.688;2022-10-26T02:35:02;100202.39;;;15.19;73.93
3748;BME280;1889;50.058;8.688;2022-10-26T02:37:34;100202.34;;;15.21;73.91
3748;BME280;1889;50.058;8.688;2022-10-26T02:40:07;100211.98;;;15.23;73.83
3748;BME280;1889;50.058;8.688;2022-10-26T02:42:41;100202.58;;;15.26;73.82
3748;BME280;1889;50.058;8.688;2022-10-26T02:45:15;100207.19;;;15.21;73.93
3748;BME280;1889;50.058;8.688;2022-10-26T02:47:44;100218.98;;;15.24;73.94
3748;BME280;1889;50.058;8.688;2022-10-26T02:50:13;100212.99;;;15.19;73.96
3748;BME280;1889;50.058;8.688;2022-10-26T02:53:04;100201.93;;;15.20;74.10
3748;BME280;1889;50.058;8.688;2022-10-26T02:55:34;100185.92;;;15.23;73.98
3748;BME280;1889;50.058;8.688;2022-10-26T02:58:11;100189.08;;;15.21;74.09
3748;BME280;1889;50.058;8.688;2022-10-26T03:00:39;100192.14;;;15.22;74.09
3748;BME280;1889;50.058;8.688;2022-10-26T03:03:08;100189.95;;;15.21;74.13
3748;BME280;1889;50.058;8.688;2022-10-26T03:05:40;100181.81;;;15.26;74.01
3748;BME280;1889;50.058;8.688;2022-10-26T03:08:10;100176.56;;;15.24;74.02
3748;BME280;1889;50.058;8.688;2022-10-26T03:10:44;100173.81;;;15.27;74.12
3748;BME280;1889;50.058;8.688;2022-10-26T03:13:13;100176.47;;;15.27;74.17
3748;BME280;1889;50.058;8.688;2022-10-26T03:15:43;100183.05;;;15.29;74.28
3748;BME280;1889;50.058;8.688;2022-10-26T03:18:12;100185.70;;;15.29;74.30
3748;BME280;1889;50.058;8.688;2022-10-26T03:20:43;100193.24;;;15.28;74.33
3748;BME280;1889;50.058;8.688;2022-10-26T03:23:13;100195.20;;;15.23;74.49
3748;BME280;1889;50.058;8.688;2022-10-26T03:25:42;100188.98;;;15.24;74.56
3748;BME280;1889;50.058;8.688;2022-10-26T03:28:11;100196.08;;;15.23;74.62
3748;BME280;1889;50.058;8.688;2022-10-26T03:30:41;100204.36;;;15.26;74.69
3748;BME280;1889;50.058;8.688;2022-10-26T03:33:11;100206.05;;;15.28;74.65
3748;BME280;1889;50.058;8.688;2022-10-26T03:35:40;100213.23;;;15.25;74.71
3748;BME280;1889;50.058;8.688;2022-10-26T03:38:10;100206.55;;;15.26;74.80
3748;BME280;1889;50.058;8.688;2022-10-26T03:40:40;100208.74;;;15.27;74.81
3748;BME280;1889;50.058;8.688;2022-10-26T03:43:09;100199.00;;;15.27;74.80
3748;BME280;1889;50.058;8.688;2022-10-26T03:45:39;100198.04;;;15.30;74.83
3748;BME280;1889;50.058;8.688;2022-10-26T03:48:08;100193.30;;;15.26;74.86
3748;BME280;1889;50.058;8.688;2022-10-26T03:50:37;100203.90;;;15.26;74.94
3748;BME280;1889;50.058;8.688;2022-10-26T03:53:07;100202.11;;;15.27;75.00
3748;BME280;1889;50.058;8.688;2022-10-26T03:55:36;100197.03;;;15.21;75.18
3748;BME280;1889;50.058;8.688;2022-10-26T03:58:05;100199.23;;;15.21;75.21
3748;BME280;1889;50.058;8.688;2022-10-26T04:00:35;100206.68;;;15.23;75.21
3748;BME280;1889;50.058;8.688;2022-10-26T04:03:04;100201.23;;;15.15;75.43
3748;BME280;1889;50.058;8.688;2022-10-26T04:05:33;100201.98;;;15.18;75.45
3748;BME280;1889;50.058;8.688;2022-10-26T04:08:03;100195.39;;;15.17;75.44
3748;BME280;1889;50.058;8.688;2022-10-26T04:10:32;100193.56;;;15.19;75.46
3748;BME280;1889;50.058;8.688;2022-10-26T04:13:01;100200.09;;;15.22;75.39
3748;BME280;1889;50.058;8.688;2022-10-26T04:15:31;100196.53;;;15.23;75.35
3748;BME280;1889;50.058;8.688;2022-10-26T04:18:01;100179.30;;;15.23;75.32
3748;BME280;1889;50.058;8.688;2022-10-26T04:20:32;100192.38;;;15.27;75.03
3748;BME280;1889;50.058;8.688;2022-10-26T04:23:05;100208.10;;;15.20;75.37
3748;BME280;1889;50.058;8.688;2022-10-26T04:25:34;100208.10;;;15.20;75.37
3748;BME280;1889;50.058;8.688;2022-10-26T04:28:05;100204.53;;;15.21;75.17
3748;BME280;1889;50.058;8.688;2022-10-26T04:30:35;100208.52;;;15.21;75.22
3748;BME280;1889;50.058;8.688;2022-10-26T04:33:05;100203.72;;;15.19;75.26
3748;BME280;1889;50.058;8.688;2022-10-26T04:35:35;100206.69;;;15.10;75.71
3748;BME280;1889;50.058;8.688;2022-10-26T04:38:05;100210.11;;;15.14;75.64
3748;BME280;1889;50.058;8.688;2022-10-26T04:40:35;100206.54;;;15.15;75.58
3748;BME280;1889;50.058;8.688;2022-10-26T04:43:04;100205.36;;;15.10;75.65
3748;BME280;1889;50.058;8.688;2022-10-26T04:45:34;100198.95;;;15.04;75.76
3748;BME280;1889;50.058;8.688;2022-10-26T04:48:05;100194.88;;;15.07;75.85
3748;BME280;1889;50.058;8.688;2022-10-26T04:50:35;100192.87;;;15.14;75.62
3748;BME280;1889;50.058;8.688;2022-10-26T04:53:06;100193.37;;;15.12;76.03
3748;BME280;1889;50.058;8.688;2022-10-26T04:55:36;100193.37;;;15.12;76.03
3748;BME280;1889;50.058;8.688;2022-10-26T04:58:07;100186.84;;;15.09;75.69
3748;BME280;1889;50.058;8.688;2022-10-26T05:00:36;100188.30;;;14.93;76.11
3748;BME280;1889;50.058;8.688;2022-10-26T05:03:06;100186.52;;;14.93;76.23
3748;BME280;1889;50.058;8.688;2022-10-26T05:05:36;100192.50;;;15.00;76.13
3748;BME280;1889;50.058;8.688;2022-10-26T05:08:05;100186.66;;;15.02;76.00
3748;BME280;1889;50.058;8.688;2022-10-26T05:10:35;100189.67;;;15.04;75.89
3748;BME280;1889;50.058;8.688;2022-10-26T05:13:04;100188.40;;;15.03;75.83
3748;BME280;1889;50.058;8.688;2022-10-26T05:15:34;100181.90;;;15.00;75.86
3748;BME280;1889;50.058;8.688;2022-10-26T05:18:04;100185.24;;;15.05;75.74
3748;BME280;1889;50.058;8.688;2022-10-26T05:20:34;100181.90;;;15.00;75.77
3748;BME280;1889;50.058;8.688;2022-10-26T05:23:06;100192.95;;;14.99;75.89
3748;BME280;1889;50.058;8.688;2022-10-26T05:25:36;100183.60;;;15.01;75.97
3748;BME280;1889;50.058;8.688;2022-10-26T05:28:08;100184.47;;;15.01;75.97
3748;BME280;1889;50.058;8.688;2022-10-26T05:30:41;100182.64;;;15.03;76.01
3748;BME280;1889;50.058;8.688;2022-10-26T05:33:11;100191.00;;;15.04;76.00
3748;BME280;1889;50.058;8.688;2022-10-26T05:35:41;100200.64;;;15.07;75.91
3748;BME280;1889;50.058;8.688;2022-10-26T05:38:13;100201.05;;;15.08;75.85
3748;BME280;1889;50.058;8.688;2022-10-26T05:40:49;100202.84;;;15.07;75.79
3748;BME280;1889;50.058;8.688;2022-10-26T05:43:20;100206.45;;;15.05;75.82
3748;BME280;1889;50.058;8.688;2022-10-26T05:45:50;100202.06;;;15.04;75.85
3748;BME280;1889;50.058;8.688;2022-10-26T05:48:20;100206.95;;;15.03;75.84
3748;BME280;1889;50.058;8.688;2022-10-26T05:50:49;100206.95;;;15.03;75.83
3748;BME280;1889;50.058;8.688;2022-10-26T05:53:19;100211.43;;;15.01;75.84
3748;BME280;1889;50.058;8.688;2022-10-26T05:55:48;100210.52;;;15.02;75.83
3748;BME280;1889;50.058;8.688;2022-10-26T05:58:18;100215.86;;;15.00;75.91
3748;BME280;1889;50.058;8.688;2022-10-26T06:03:33;100214.40;;;15.05;75.78
3748;BME280;1889;50.058;8.688;2022-10-26T06:06:00;100215.81;;;15.02;75.80
3748;BME280;1889;50.058;8.688;2022-10-26T06:08:30;100220.66;;;15.02;75.85
3748;BME280;1889;50.058;8.688;2022-10-26T06:11:00;100221.02;;;15.05;75.86
3748;BME280;1889;50.058;8.688;2022-10-26T06:13:30;100214.03;;;15.02;75.90
3748;BME280;1889;50.058;8.688;2022-10-26T06:16:10;100214.45;;;15.03;75.89
3748;BME280;1889;50.058;8.688;2022-10-26T06:21:38;100222.86;;;15.03;75.95
3748;BME280;1889;50.058;8.688;2022-10-26T06:27:07;100222.48;;;15.00;76.11
3748;BME280;1889;50.058;8.688;2022-10-26T06:32:17;100236.61;;;15.01;76.29
3748;BME280;1889;50.058;8.688;2022-10-26T06:34:48;100242.37;;;15.00;76.38
3748;BME280;1889;50.058;8.688;2022-10-26T06:37:19;100248.36;;;15.07;76.33
3748;BME280;1889;50.058;8.688;2022-10-26T06:39:49;100250.79;;;15.13;76.24
3748;BME280;1889;50.058;8.688;2022-10-26T06:42:19;100251.70;;;15.12;76.40
3748;BME280;1889;50.058;8.688;2022-10-26T06:44:49;100258.23;;;15.02;76.72
3748;BME280;1889;50.058;8.688;2022-10-26T06:47:31;100266.48;;;14.93;77.33
3748;BME280;1889;50.058;8.688;2022-10-26T06:55:45;100282.60;;;15.13;76.72
3748;BME280;1889;50.058;8.688;2022-10-26T06:58:19;100285.55;;;15.17;76.65
3748;BME280;1889;50.058;8.688;2022-10-26T07:00:51;100292.13;;;15.18;76.66
3748;BME280;1889;50.058;8.688;2022-10-26T07:03:21;100297.21;;;15.24;76.58
3748;BME280;1889;50.058;8.688;2022-10-26T07:05:51;100290.80;;;15.18;76.76
3748;BME280;1889;50.058;8.688;2022-10-26T07:08:20;100295.28;;;15.16;76.99
3748;BME280;1889;50.058;8.688;2022-10-26T07:10:50;100299.75;;;15.16;77.12
3748;BME280;1889;50.058;8.688;2022-10-26T07:13:19;100302.14;;;15.23;77.02
3748;BME280;1889;50.058;8.688;2022-10-26T07:15:48;100297.98;;;15.28;76.93
3748;BME280;1889;50.058;8.688;2022-10-26T07:18:18;100295.16;;;15.33;76.84
3748;BME280;1889;50.058;8.688;2022-10-26T07:20:47;100308.20;;;15.40;76.42
3748;BME280;1889;50.058;8.688;2022-10-26T07:23:16;100308.20;;;15.40;76.42
3748;BME280;1889;50.058;8.688;2022-10-26T07:25:46;100300.61;;;15.41;76.64
3748;BME280;1889;50.058;8.688;2022-10-26T07:28:15;100300.61;;;15.41;76.64
3748;BME280;1889;50.058;8.688;2022-10-26T07:30:44;100304.14;;;15.42;76.74
3748;BME280;1889;50.058;8.688;2022-10-26T07:33:13;100308.53;;;15.43;76.79
3748;BME280;1889;50.058;8.688;2022-10-26T07:35:43;100309.03;;;15.41;77.29
3748;BME280;1889;50.058;8.688;2022-10-26T07:38:12;100309.03;;;15.41;77.29
3748;BME280;1889;50.058;8.688;2022-10-26T07:40:42;100307.61;;;15.44;76.95
3748;BME280;1889;50.058;8.688;2022-10-26T07:43:11;100319.98;;;15.32;77.63
3748;BME280;1889;50.058;8.688;2022-10-26T07:45:40;100317.20;;;15.35;77.66
3748;BME280;1889;50.058;8.688;2022-10-26T07:48:10;100334.39;;;15.36;77.74
3748;BME280;1889;50.058;8.688;2022-10-26T07:50:39;100346.02;;;15.19;78.79
3748;BME280;1889;50.058;8.688;2022-10-26T07:53:08;100347.10;;;15.13;79.25
3748;BME280;1889;50.058;8.688;2022-10-26T07:55:38;100351.34;;;15.32;78.68
3748;BME280;1889;50.058;8.688;2022-10-26T07:58:07;100345.52;;;15.47;77.83
3748;BME280;1889;50.058;8.688;2022-10-26T08:00:36;100345.52;;;15.47;77.83
3748;BME280;1889;50.058;8.688;2022-10-26T08:03:06;100353.53;;;15.59;77.65
3748;BME280;1889;50.058;8.688;2022-10-26T08:05:35;100353.53;;;15.59;77.65
3748;BME280;1889;50.058;8.688;2022-10-26T08:08:04;100356.09;;;15.62;77.86
3748;BME280;1889;50.058;8.688;2022-10-26T08:10:33;100363.88;;;15.67;77.75
3748;BME280;1889;50.058;8.688;2022-10-26T08:13:03;100364.48;;;15.75;77.69
3748;BME280;1889;50.058;8.688;2022-10-26T08:15:32;100354.05;;;15.82;77.50
3748;BME280;1889;50.058;8.688;2022-10-26T08:18:02;100351.66;;;15.87;77.48
3748;BME280;1889;50.058;8.688;2022-10-26T08:20:31;100353.17;;;15.94;77.30
3748;BME280;1889;50.058;8.688;2022-10-26T08:23:01;100367.72;;;15.96;77.54
3748;BME280;1889;50.058;8.688;2022-10-26T08:25:32;100367.72;;;15.96;77.54
3748;BME280;1889;50.058;8.688;2022-10-26T08:28:02;100362.41;;;16.08;77.31
3748;BME280;1889;50.058;8.688;2022-10-26T08:30:32;100361.50;;;16.09;77.06
3748;BME280;1889;50.058;8.688;2022-10-26T08:33:03;100361.50;;;16.09;77.06
3748;BME280;1889;50.058;8.688;2022-10-26T08:35:33;100366.12;;;16.15;77.06
3748;BME280;1889;50.058;8.688;2022-10-26T08:38:03;100357.69;;;16.16;77.24
3748;BME280;1889;50.058;8.688;2022-10-26T08:40:35;100357.69;;;16.16;77.24
3748;BME280;1889;50.058;8.688;2022-10-26T08:43:32;100356.02;;;16.25;76.97
3748;BME280;1889;50.058;8.688;2022-10-26T08:46:12;100347.33;;;16.21;76.35
3748;BME280;1889;50.058;8.688;2022-10-26T08:49:19;100347.33;;;16.21;76.35
3748;BME280;1889;50.058;8.688;2022-10-26T08:51:24;100351.22;;;16.23;76.62
3748;BME280;1889;50.058;8.688;2022-10-26T08:56:57;100354.06;;;16.41;76.15
3748;BME280;1889;50.058;8.688;2022-10-26T08:59:46;100371.41;;;16.52;76.13
3748;BME280;1889;50.058;8.688;2022-10-26T09:02:17;100371.41;;;16.52;76.13
3748;BME280;1889;50.058;8.688;2022-10-26T09:04:46;100367.67;;;16.69;75.77
3748;BME280;1889;50.058;8.688;2022-10-26T09:10:23;100373.09;;;16.66;75.17
3748;BME280;1889;50.058;8.688;2022-10-26T09:13:01;100380.72;;;16.75;75.29
3748;BME280;1889;50.058;8.688;2022-10-26T09:15:58;100376.37;;;16.72;75.38
3748;BME280;1889;50.058;8.688;2022-10-26T09:18:41;100367.47;;;16.85;75.91
3748;BME280;1889;50.058;8.688;2022-10-26T09:21:16;100365.64;;;16.97;75.99
3748;BME280;1889;50.058;8.688;2022-10-26T09:23:56;100363.13;;;17.04;75.26
3748;BME280;1889;50.058;8.688;2022-10-26T09:26:32;100380.92;;;16.92;76.40
3748;BME280;1889;50.058;8.688;2022-10-26T09:29:04;100390.09;;;16.95;77.09
3748;BME280;1889;50.058;8.688;2022-10-26T09:31:40;100393.31;;;17.03;76.15
3748;BME280;1889;50.058;8.688;2022-10-26T09:34:16;100402.81;;;16.99;76.17
3748;BME280;1889;50.058;8.688;2022-10-26T09:36:44;100407.48;;;17.04;76.28
3748;BME280;1889;50.058;8.688;2022-10-26T09:39:20;100409.66;;;17.16;75.51
3748;BME280;1889;50.058;8.688;2022-10-26T09:42:02;100415.28;;;17.30;75.46
3748;BME280;1889;50.058;8.688;2022-10-26T09:47:36;100416.00;;;17.02;76.29
3748;BME280;1889;50.058;8.688;2022-10-26T09:50:30;100418.20;;;17.24;76.01
3748;BME280;1889;50.058;8.688;2022-10-26T09:52:59;100418.99;;;17.48;75.08
3748;BME280;1889;50.058;8.688;2022-10-26T09:55:30;100421.05;;;17.41;74.69
3748;BME280;1889;50.058;8.688;2022-10-26T09:58:02;100417.92;;;17.42;74.93
3748;BME280;1889;50.058;8.688;2022-10-26T10:00:33;100419.48;;;17.58;74.88
3748;BME280;1889;50.058;8.688;2022-10-26T10:03:16;100420.35;;;17.58;74.23
3748;BME280;1889;50.058;8.688;2022-10-26T10:05:36;100418.16;;;17.58;74.44
3748;BME280;1889;50.058;8.688;2022-10-26T10:13:42;100422.88;;;17.83;74.17
3748;BME280;1889;50.058;8.688;2022-10-26T10:16:11;100420.05;;;17.76;74.31
3748;BME280;1889;50.058;8.688;2022-10-26T10:18:41;100421.02;;;17.75;74.93
3748;BME280;1889;50.058;8.688;2022-10-26T10:21:11;100425.06;;;17.93;74.01
3748;BME280;1889;50.058;8.688;2022-10-26T10:23:49;100424.86;;;18.08;73.86
3748;BME280;1889;50.058;8.688;2022-10-26T10:26:21;100433.14;;;18.22;73.40
3748;BME280;1889;50.058;8.688;2022-10-26T10:28:58;100433.39;;;18.26;73.04
3748;BME280;1889;50.058;8.688;2022-10-26T10:31:33;100440.52;;;18.26;73.03
3748;BME280;1889;50.058;8.688;2022-10-26T10:34:14;100438.34;;;18.15;72.96
3748;BME280;1889;50.058;8.688;2022-10-26T10:36:34;100445.34;;;18.08;73.48
3748;BME280;1889;50.058;8.688;2022-10-26T10:39:05;100443.45;;;18.10;73.78
3748;BME280;1889;50.058;8.688;2022-10-26T10:41:36;100448.00;;;18.08;72.91
3748;BME280;1889;50.058;8.688;2022-10-26T10:44:18;100449.77;;;18.17;73.29
3748;BME280;1889;50.058;8.688;2022-10-26T10:46:47;100460.89;;;18.17;73.25
3748;BME280;1889;50.058;8.688;2022-10-26T10:49:24;100460.89;;;18.17;73.25
3748;BME280;1889;50.058;8.688;2022-10-26T10:51:55;100452.52;;;18.06;74.33
3748;BME280;1889;50.058;8.688;2022-10-26T10:59:43;100459.16;;;18.46;73.21
3748;BME280;1889;50.058;8.688;2022-10-26T11:11:08;100456.58;;;18.84;71.82
3748;BME280;1889;50.058;8.688;2022-10-26T11:13:54;100456.58;;;18.84;71.82
3748;BME280;1889;50.058;8.688;2022-10-26T11:16:25;100461.72;;;18.88;71.53
3748;BME280;1889;50.058;8.688;2022-10-26T11:19:03;100469.70;;;19.07;71.61
3748;BME280;1889;50.058;8.688;2022-10-26T11:21:32;100468.43;;;18.97;71.33
3748;BME280;1889;50.058;8.688;2022-10-26T11:26:48;100456.80;;;19.17;71.29
3748;BME280;1889;50.058;8.688;2022-10-26T11:29:31;100473.05;;;19.12;70.81
3748;BME280;1889;50.058;8.688;2022-10-26T11:32:14;100473.05;;;19.12;70.81
3748;BME280;1889;50.058;8.688;2022-10-26T11:37:31;100477.75;;;19.34;70.19
3748;BME280;1889;50.058;8.688;2022-10-26T11:42:56;100474.83;;;19.49;69.86
3748;BME280;1889;50.058;8.688;2022-10-26T11:45:44;100474.83;;;19.49;69.86
3748;BME280;1889;50.058;8.688;2022-10-26T11:48:22;100488.67;;;19.57;69.80
3748;BME280;1889;50.058;8.688;2022-10-26T11:50:54;100486.01;;;19.57;69.20
3748;BME280;1889;50.058;8.688;2022-10-26T11:53:32;100486.01;;;19.57;69.20
3748;BME280;1889;50.058;8.688;2022-10-26T11:56:01;100488.81;;;19.54;69.22
3748;BME280;1889;50.058;8.688;2022-10-26T11:58:32;100482.27;;;19.61;69.27
3748;BME280;1889;50.058;8.688;2022-10-26T12:01:03;100489.55;;;19.58;69.00
3748;BME280;1889;50.058;8.688;2022-10-26T12:03:36;100493.41;;;19.61;69.10
3748;BME280;1889;50.058;8.688;2022-10-26T12:06:07;100495.42;;;19.56;69.37
3748;BME280;1889;50.058;8.688;2022-10-26T12:08:39;100495.42;;;19.56;69.37
3748;BME280;1889;50.058;8.688;2022-10-26T12:11:24;100497.95;;;19.59;69.54
3748;BME280;1889;50.058;8.688;2022-10-26T12:13:56;100490.57;;;19.64;69.51
3748;BME280;1889;50.058;8.688;2022-10-26T12:16:41;100498.13;;;19.73;69.42
3748;BME280;1889;50.058;8.688;2022-10-26T12:21:57;100497.11;;;19.67;69.52
3748;BME280;1889;50.058;8.688;2022-10-26T12:24:29;100505.59;;;19.66;69.41
3748;BME280;1889;50.058;8.688;2022-10-26T12:27:02;100505.59;;;19.66;69.41
3748;BME280;1889;50.058;8.688;2022-10-26T12:29:38;100505.66;;;19.65;69.86
3748;BME280;1889;50.058;8.688;2022-10-26T12:37:34;100505.00;;;19.51;70.58
3748;BME280;1889;50.058;8.688;2022-10-26T12:40:42;100509.45;;;19.69;70.28
3748;BME280;1889;50.058;8.688;2022-10-26T12:48:37;100514.23;;;19.71;69.77
3748;BME280;1889;50.058;8.688;2022-10-26T12:50:54;100510.02;;;19.76;69.42
3748;BME280;1889;50.058;8.688;2022-10-26T12:53:25;100506.25;;;19.89;69.42
3748;BME280;1889;50.058;8.688;2022-10-26T12:56:02;100506.52;;;20.01;69.19
3748;BME280;1889;50.058;8.688;2022-10-26T12:58:53;100504.22;;;19.85;68.88
3748;BME280;1889;50.058;8.688;2022-10-26T13:01:48;100501.45;;;19.95;69.21
3748;BME280;1889;50.058;8.688;2022-10-26T13:07:21;100510.59;;;19.91;68.91
3748;BME280;1889;50.058;8.688;2022-10-26T13:10:03;100521.74;;;19.91;69.71
3748;BME280;1889;50.058;8.688;2022-10-26T13:12:47;100521.74;;;19.91;69.71
3748;BME280;1889;50.058;8.688;2022-10-26T13:15:32;100524.12;;;20.05;69.16
3748;BME280;1889;50.058;8.688;2022-10-26T13:20:36;100529.80;;;20.16;69.29
3748;BME280;1889;50.058;8.688;2022-10-26T13:23:15;100530.26;;;20.07;68.77
3748;BME280;1889;50.058;8.688;2022-10-26T13:26:00;100529.33;;;20.17;68.90
3748;BME280;1889;50.058;8.688;2022-10-26T13:34:15;100529.95;;;20.22;69.15
3748;BME280;1889;50.058;8.688;2022-10-26T13:37:04;100533.16;;;20.20;69.08
3748;BME280;1889;50.058;8.688;2022-10-26T13:39:38;100529.25;;;20.10;69.48
3748;BME280;1889;50.058;8.688;2022-10-26T13:42:13;100534.73;;;20.07;69.57
3748;BME280;1889;50.058;8.688;2022-10-26T13:47:41;100529.23;;;20.27;69.27
3748;BME280;1889;50.058;8.688;2022-10-26T13:50:11;100538.98;;;20.28;69.37
3748;BME280;1889;50.058;8.688;2022-10-26T13:52:49;100530.02;;;20.29;69.15
3748;BME280;1889;50.058;8.688;2022-10-26T13:58:21;100539.31;;;20.31;69.17
3748;BME280;1889;50.058;8.688;2022-10-26T14:01:11;100537.42;;;20.24;68.97
3748;BME280;1889;50.058;8.688;2022-10-26T14:03:32;100543.30;;;20.13;69.02
3748;BME280;1889;50.058;8.688;2022-10-26T14:06:09;100544.42;;;20.18;69.25
3748;BME280;1889;50.058;8.688;2022-10-26T14:08:39;100543.47;;;20.28;69.11
3748;BME280;1889;50.058;8.688;2022-10-26T14:11:11;100538.11;;;20.28;68.97
3748;BME280;1889;50.058;8.688;2022-10-26T14:13:41;100549.06;;;20.32;69.08
3748;BME280;1889;50.058;8.688;2022-10-26T14:16:11;100549.20;;;20.29;69.24
3748;BME280;1889;50.058;8.688;2022-10-26T14:18:40;100551.88;;;20.29;69.14
3748;BME280;1889;50.058;8.688;2022-10-26T14:21:15;100562.44;;;20.32;68.92
3748;BME280;1889;50.058;8.688;2022-10-26T14:26:22;100568.22;;;20.50;68.61
3748;BME280;1889;50.058;8.688;2022-10-26T14:28:53;100566.70;;;20.53;68.30
3748;BME280;1889;50.058;8.688;2022-10-26T14:31:28;100572.45;;;20.54;68.14
3748;BME280;1889;50.058;8.688;2022-10-26T14:33:59;100573.39;;;20.44;67.94
3748;BME280;1889;50.058;8.688;2022-10-26T14:36:31;100572.84;;;20.46;68.15
3748;BME280;1889;50.058;8.688;2022-10-26T14:39:38;100569.77;;;20.37;67.59
3748;BME280;1889;50.058;8.688;2022-10-26T14:41:38;100573.85;;;20.35;67.82
3748;BME280;1889;50.058;8.688;2022-10-26T14:44:19;100575.12;;;20.37;67.85
3748;BME280;1889;50.058;8.688;2022-10-26T14:46:48;100572.77;;;20.39;67.99
3748;BME280;1889;50.058;8.688;2022-10-26T14:49:20;100575.98;;;20.46;67.89
3748;BME280;1889;50.058;8.688;2022-10-26T14:52:03;100573.64;;;20.40;67.74
3748;BME280;1889;50.058;8.688;2022-10-26T14:54:26;100566.95;;;20.40;67.89
3748;BME280;1889;50.058;8.688;2022-10-26T14:56:56;100571.19;;;20.44;67.92
3748;BME280;1889;50.058;8.688;2022-10-26T14:59:33;100569.70;;;20.38;67.94
3748;BME280;1889;50.058;8.688;2022-10-26T15:02:01;100577.35;;;20.27;68.19
3748;BME280;1889;50.058;8.688;2022-10-26T15:04:33;100575.00;;;20.30;68.37
3748;BME280;1889;50.058;8.688;2022-10-26T15:09:43;100583.81;;;20.23;68.64
3748;BME280;1889;50.058;8.688;2022-10-26T15:12:32;100583.02;;;20.30;68.36
3748;BME280;1889;50.058;8.688;2022-10-26T15:17:53;100588.05;;;20.27;68.47
3748;BME280;1889;50.058;8.688;2022-10-26T15:20:25;100590.08;;;20.13;68.95
3748;BME280;1889;50.058;8.688;2022-10-26T15:22:57;100590.08;;;20.13;68.95
3748;BME280;1889;50.058;8.688;2022-10-26T15:25:28;100591.48;;;20.12;69.08
3748;BME280;1889;50.058;8.688;2022-10-26T15:28:19;100596.53;;;20.09;69.18
3748;BME280;1889;50.058;8.688;2022-10-26T15:30:56;100599.30;;;20.16;68.98
3748;BME280;1889;50.058;8.688;2022-10-26T15:33:20;100603.37;;;20.15;69.23
3748;BME280;1889;50.058;8.688;2022-10-26T15:35:49;100607.05;;;20.12;69.40
3748;BME280;1889;50.058;8.688;2022-10-26T15:38:19;100607.45;;;20.13;69.35
3748;BME280;1889;50.058;8.688;2022-10-26T15:40:48;100601.23;;;20.13;69.39